sensor_id;sensor_type;location;lat;lon;timestamp;P1;durP1;ratioP1;P2;durP2;ratioP2
10851;SDS011;5479;52.046;6.314;2023-07-29T00:00:58;16.17;;;14.02;;
10851;SDS011;5479;52.046;6.314;2023-07-29T00:03:27;17.25;;;15.45;;
10851;SDS011;5479;52.046;6.314;2023-07-29T00:05:57;17.63;;;15.63;;
10851;SDS011;5479;52.046;6.314;2023-07-29T00:08:26;18.08;;;16.17;;
10851;SDS011;5479;52.046;6.314;2023-07-29T00:10:57;19.75;;;17.75;;
10851;SDS011;5479;52.046;6.314;2023-07-29T00:13:29;19.95;;;17.23;;
10851;SDS011;5479;52.046;6.314;2023-07-29T00:16:01;19.63;;;17.52;;
10851;SDS011;5479;52.046;6.314;2023-07-29T00:18:32;19.55;;;16.95;;
10851;SDS011;5479;52.046;6.314;2023-07-29T00:21:04;21.20;;;18.05;;
10851;SDS011;5479;52.046;6.314;2023-07-29T00:23:32;19.65;;;17.55;;
10851;SDS011;5479;52.046;6.314;2023-07-29T00:26:00;20.47;;;18.00;;
10851;SDS011;5479;52.046;6.314;2023-07-29T00:28:39;19.90;;;17.45;;
10851;SDS011;5479;52.046;6.314;2023-07-29T00:31:07;19.80;;;17.60;;
10851;SDS011;5479;52.046;6.314;2023-07-29T00:33:38;19.60;;;16.88;;
10851;SDS011;5479;52.046;6.314;2023-07-29T00:36:09;19.38;;;16.98;;
10851;SDS011;5479;52.046;6.314;2023-07-29T00:38:38;19.27;;;17.27;;
10851;SDS011;5479;52.046;6.314;2023-07-29T00:41:08;20.42;;;17.85;;
10851;SDS011;5479;52.046;6.314;2023-07-29T00:43:39;20.42;;;18.25;;
10851;SDS011;5479;52.046;6.314;2023-07-29T00:46:08;21.08;;;18.05;;
10851;SDS011;5479;52.046;6.314;2023-07-29T00:48:39;19.42;;;17.08;;
10851;SDS011;5479;52.046;6.314;2023-07-29T00:51:07;21.57;;;17.87;;
10851;SDS011;5479;52.046;6.314;2023-07-29T00:53:36;20.30;;;18.10;;
10851;SDS011;5479;52.046;6.314;2023-07-29T00:56:05;22.23;;;18.40;;
10851;SDS011;5479;52.046;6.314;2023-07-29T00:58:33;22.37;;;18.47;;
10851;SDS011;5479;52.046;6.314;2023-07-29T01:01:02;21.17;;;17.67;;
10851;SDS011;5479;52.046;6.314;2023-07-29T01:03:30;19.90;;;17.80;;
10851;SDS011;5479;52.046;6.314;2023-07-29T01:06:08;20.00;;;17.83;;
10851;SDS011;5479;52.046;6.314;2023-07-29T01:08:46;19.87;;;17.77;;
10851;SDS011;5479;52.046;6.314;2023-07-29T01:11:26;19.37;;;16.90;;
10851;SDS011;5479;52.046;6.314;2023-07-29T01:14:08;19.00;;;17.00;;
10851;SDS011;5479;52.046;6.314;2023-07-29T01:16:51;18.83;;;16.53;;
10851;SDS011;5479;52.046;6.314;2023-07-29T01:19:26;18.20;;;16.00;;
10851;SDS011;5479;52.046;6.314;2023-07-29T01:22:12;19.70;;;16.47;;
10851;SDS011;5479;52.046;6.314;2023-07-29T01:24:45;16.47;;;14.67;;
10851;SDS011;5479;52.046;6.314;2023-07-29T01:27:13;17.10;;;15.30;;
10851;SDS011;5479;52.046;6.314;2023-07-29T01:29:41;16.50;;;14.80;;
10851;SDS011;5479;52.046;6.314;2023-07-29T01:32:10;17.40;;;15.43;;
10851;SDS011;5479;52.046;6.314;2023-07-29T01:34:44;15.80;;;14.10;;
10851;SDS011;5479;52.046;6.314;2023-07-29T01:37:18;19.17;;;15.40;;
10851;SDS011;5479;52.046;6.314;2023-07-29T01:39:53;18.85;;;16.85;;
10851;SDS011;5479;52.046;6.314;2023-07-29T01:42:24;17.20;;;15.10;;
10851;SDS011;5479;52.046;6.314;2023-07-29T01:44:53;17.97;;;15.33;;
10851;SDS011;5479;52.046;6.314;2023-07-29T01:47:23;16.67;;;14.90;;
10851;SDS011;5479;52.046;6.314;2023-07-29T01:49:54;17.10;;;15.30;;
10851;SDS011;5479;52.046;6.314;2023-07-29T01:52:22;17.63;;;15.73;;
10851;SDS011;5479;52.046;6.314;2023-07-29T01:54:55;18.60;;;16.13;;
10851;SDS011;5479;52.046;6.314;2023-07-29T01:57:23;18.23;;;16.33;;
10851;SDS011;5479;52.046;6.314;2023-07-29T01:59:51;18.20;;;15.53;;
10851;SDS011;5479;52.046;6.314;2023-07-29T02:02:19;20.27;;;17.77;;
10851;SDS011;5479;52.046;6.314;2023-07-29T02:04:47;18.50;;;16.57;;
10851;SDS011;5479;52.046;6.314;2023-07-29T02:07:17;19.40;;;16.90;;
10851;SDS011;5479;52.046;6.314;2023-07-29T02:09:46;18.17;;;16.07;;
10851;SDS011;5479;52.046;6.314;2023-07-29T02:12:18;16.63;;;14.93;;
10851;SDS011;5479;52.046;6.314;2023-07-29T02:14:46;15.23;;;13.60;;
10851;SDS011;5479;52.046;6.314;2023-07-29T02:17:14;14.10;;;12.60;;
10851;SDS011;5479;52.046;6.314;2023-07-29T02:19:42;16.87;;;15.03;;
10851;SDS011;5479;52.046;6.314;2023-07-29T02:22:16;15.67;;;14.07;;
10851;SDS011;5479;52.046;6.314;2023-07-29T02:24:45;16.13;;;13.77;;
10851;SDS011;5479;52.046;6.314;2023-07-29T02:27:13;15.40;;;13.73;;
10851;SDS011;5479;52.046;6.314;2023-07-29T02:29:42;18.08;;;14.02;;
10851;SDS011;5479;52.046;6.314;2023-07-29T02:32:10;17.80;;;14.90;;
10851;SDS011;5479;52.046;6.314;2023-07-29T02:34:38;15.47;;;13.87;;
10851;SDS011;5479;52.046;6.314;2023-07-29T02:37:06;16.30;;;14.60;;
10851;SDS011;5479;52.046;6.314;2023-07-29T02:39:44;16.95;;;13.63;;
10851;SDS011;5479;52.046;6.314;2023-07-29T02:42:15;15.97;;;13.20;;
10851;SDS011;5479;52.046;6.314;2023-07-29T02:44:44;14.50;;;13.00;;
10851;SDS011;5479;52.046;6.314;2023-07-29T02:47:15;17.02;;;14.65;;
10851;SDS011;5479;52.046;6.314;2023-07-29T02:49:44;16.33;;;13.73;;
10851;SDS011;5479;52.046;6.314;2023-07-29T02:52:12;19.13;;;14.80;;
10851;SDS011;5479;52.046;6.314;2023-07-29T02:54:42;15.73;;;14.00;;
10851;SDS011;5479;52.046;6.314;2023-07-29T02:57:13;14.55;;;13.05;;
10851;SDS011;5479;52.046;6.314;2023-07-29T02:59:45;17.95;;;14.43;;
10851;SDS011;5479;52.046;6.314;2023-07-29T03:02:15;15.90;;;14.20;;
10851;SDS011;5479;52.046;6.314;2023-07-29T03:04:43;15.83;;;14.13;;
10851;SDS011;5479;52.046;6.314;2023-07-29T03:07:11;16.40;;;14.07;;
10851;SDS011;5479;52.046;6.314;2023-07-29T03:09:42;15.07;;;13.15;;
10851;SDS011;5479;52.046;6.314;2023-07-29T03:12:11;15.20;;;12.93;;
10851;SDS011;5479;52.046;6.314;2023-07-29T03:14:39;19.50;;;14.95;;
10851;SDS011;5479;52.046;6.314;2023-07-29T03:17:09;15.65;;;13.90;;
10851;SDS011;5479;52.046;6.314;2023-07-29T03:19:39;15.17;;;13.57;;
10851;SDS011;5479;52.046;6.314;2023-07-29T03:22:07;13.68;;;12.27;;
10851;SDS011;5479;52.046;6.314;2023-07-29T03:24:35;16.38;;;14.68;;
10851;SDS011;5479;52.046;6.314;2023-07-29T03:27:10;13.80;;;12.50;;
10851;SDS011;5479;52.046;6.314;2023-07-29T03:29:42;15.77;;;13.73;;
10851;SDS011;5479;52.046;6.314;2023-07-29T03:32:14;15.13;;;13.52;;
10851;SDS011;5479;52.046;6.314;2023-07-29T03:34:43;16.38;;;14.70;;
10851;SDS011;5479;52.046;6.314;2023-07-29T03:37:11;15.77;;;12.52;;
10851;SDS011;5479;52.046;6.314;2023-07-29T03:39:40;14.95;;;13.40;;
10851;SDS011;5479;52.046;6.314;2023-07-29T03:42:09;15.50;;;13.30;;
10851;SDS011;5479;52.046;6.314;2023-07-29T03:44:37;15.35;;;13.75;;
10851;SDS011;5479;52.046;6.314;2023-07-29T03:47:06;15.93;;;14.32;;
10851;SDS011;5479;52.046;6.314;2023-07-29T03:49:36;15.68;;;14.05;;
10851;SDS011;5479;52.046;6.314;2023-07-29T03:52:04;16.25;;;14.55;;
10851;SDS011;5479;52.046;6.314;2023-07-29T03:54:33;16.52;;;14.75;;
10851;SDS011;5479;52.046;6.314;2023-07-29T03:57:03;16.50;;;14.73;;
10851;SDS011;5479;52.046;6.314;2023-07-29T03:59:32;16.55;;;14.80;;
10851;SDS011;5479;52.046;6.314;2023-07-29T04:02:01;17.13;;;15.30;;
10851;SDS011;5479;52.046;6.314;2023-07-29T04:04:29;17.20;;;15.23;;
10851;SDS011;5479;52.046;6.314;2023-07-29T04:06:58;17.58;;;15.77;;
10851;SDS011;5479;52.046;6.314;2023-07-29T04:09:26;17.02;;;15.07;;
10851;SDS011;5479;52.046;6.314;2023-07-29T04:11:54;17.58;;;14.98;;
10851;SDS011;5479;52.046;6.314;2023-07-29T04:14:23;17.30;;;14.88;;
10851;SDS011;5479;52.046;6.314;2023-07-29T04:16:51;16.85;;;14.48;;
10851;SDS011;5479;52.046;6.314;2023-07-29T04:19:19;16.88;;;15.07;;
10851;SDS011;5479;52.046;6.314;2023-07-29T04:21:51;16.98;;;15.10;;
10851;SDS011;5479;52.046;6.314;2023-07-29T04:24:21;17.25;;;14.93;;
10851;SDS011;5479;52.046;6.314;2023-07-29T04:26:52;16.25;;;14.55;;
10851;SDS011;5479;52.046;6.314;2023-07-29T04:29:23;17.85;;;13.60;;
10851;SDS011;5479;52.046;6.314;2023-07-29T04:31:51;15.65;;;12.70;;
10851;SDS011;5479;52.046;6.314;2023-07-29T04:34:21;15.18;;;12.98;;
10851;SDS011;5479;52.046;6.314;2023-07-29T04:36:49;14.75;;;12.25;;
10851;SDS011;5479;52.046;6.314;2023-07-29T04:39:17;12.57;;;11.27;;
10851;SDS011;5479;52.046;6.314;2023-07-29T04:41:47;14.48;;;11.32;;
10851;SDS011;5479;52.046;6.314;2023-07-29T04:44:15;13.48;;;10.38;;
10851;SDS011;5479;52.046;6.314;2023-07-29T04:46:43;11.75;;;10.48;;
10851;SDS011;5479;52.046;6.314;2023-07-29T04:49:13;14.65;;;10.70;;
10851;SDS011;5479;52.046;6.314;2023-07-29T04:51:41;12.48;;;10.25;;
10851;SDS011;5479;52.046;6.314;2023-07-29T04:54:09;11.65;;;9.95;;
10851;SDS011;5479;52.046;6.314;2023-07-29T04:56:38;10.50;;;9.07;;
10851;SDS011;5479;52.046;6.314;2023-07-29T04:59:07;10.05;;;8.50;;
10851;SDS011;5479;52.046;6.314;2023-07-29T05:01:35;10.60;;;8.15;;
10851;SDS011;5479;52.046;6.314;2023-07-29T05:04:03;11.05;;;8.02;;
10851;SDS011;5479;52.046;6.314;2023-07-29T05:06:32;8.85;;;7.38;;
10851;SDS011;5479;52.046;6.314;2023-07-29T05:09:12;10.35;;;7.43;;
10851;SDS011;5479;52.046;6.314;2023-07-29T05:11:41;8.75;;;7.05;;
10851;SDS011;5479;52.046;6.314;2023-07-29T05:14:11;9.43;;;7.65;;
10851;SDS011;5479;52.046;6.314;2023-07-29T05:16:40;8.75;;;6.72;;
10851;SDS011;5479;52.046;6.314;2023-07-29T05:19:08;9.10;;;6.88;;
10851;SDS011;5479;52.046;6.314;2023-07-29T05:21:45;8.00;;;6.70;;
10851;SDS011;5479;52.046;6.314;2023-07-29T05:24:13;8.70;;;6.70;;
10851;SDS011;5479;52.046;6.314;2023-07-29T05:26:43;9.38;;;7.90;;
10851;SDS011;5479;52.046;6.314;2023-07-29T05:29:13;11.32;;;7.97;;
10851;SDS011;5479;52.046;6.314;2023-07-29T05:31:41;11.02;;;8.02;;
10851;SDS011;5479;52.046;6.314;2023-07-29T05:34:08;11.45;;;8.20;;
10851;SDS011;5479;52.046;6.314;2023-07-29T05:36:36;9.23;;;7.15;;
10851;SDS011;5479;52.046;6.314;2023-07-29T05:39:05;9.07;;;7.40;;
10851;SDS011;5479;52.046;6.314;2023-07-29T05:41:33;9.85;;;6.82;;
10851;SDS011;5479;52.046;6.314;2023-07-29T05:44:03;8.60;;;6.45;;
10851;SDS011;5479;52.046;6.314;2023-07-29T05:46:33;8.82;;;6.32;;
10851;SDS011;5479;52.046;6.314;2023-07-29T05:49:01;8.43;;;5.72;;
10851;SDS011;5479;52.046;6.314;2023-07-29T05:51:32;8.25;;;5.70;;
10851;SDS011;5479;52.046;6.314;2023-07-29T05:54:00;9.07;;;5.75;;
10851;SDS011;5479;52.046;6.314;2023-07-29T05:56:31;7.15;;;4.97;;
10851;SDS011;5479;52.046;6.314;2023-07-29T05:58:59;7.68;;;5.22;;
10851;SDS011;5479;52.046;6.314;2023-07-29T06:01:27;7.03;;;4.78;;
10851;SDS011;5479;52.046;6.314;2023-07-29T06:03:56;7.55;;;4.78;;
10851;SDS011;5479;52.046;6.314;2023-07-29T06:06:25;6.70;;;4.60;;
10851;SDS011;5479;52.046;6.314;2023-07-29T06:08:54;5.70;;;4.10;;
10851;SDS011;5479;52.046;6.314;2023-07-29T06:11:22;5.70;;;3.83;;
10851;SDS011;5479;52.046;6.314;2023-07-29T06:13:50;5.30;;;3.83;;
10851;SDS011;5479;52.046;6.314;2023-07-29T06:16:19;6.40;;;3.72;;
10851;SDS011;5479;52.046;6.314;2023-07-29T06:18:47;5.80;;;3.90;;
10851;SDS011;5479;52.046;6.314;2023-07-29T06:21:16;7.70;;;4.20;;
10851;SDS011;5479;52.046;6.314;2023-07-29T06:23:48;7.15;;;4.38;;
10851;SDS011;5479;52.046;6.314;2023-07-29T06:26:16;5.68;;;3.75;;
10851;SDS011;5479;52.046;6.314;2023-07-29T06:28:43;6.03;;;3.97;;
10851;SDS011;5479;52.046;6.314;2023-07-29T06:31:11;8.38;;;4.57;;
10851;SDS011;5479;52.046;6.314;2023-07-29T06:33:39;6.60;;;4.30;;
10851;SDS011;5479;52.046;6.314;2023-07-29T06:36:07;6.25;;;4.47;;
10851;SDS011;5479;52.046;6.314;2023-07-29T06:38:38;6.55;;;4.30;;
10851;SDS011;5479;52.046;6.314;2023-07-29T06:41:06;7.05;;;4.05;;
10851;SDS011;5479;52.046;6.314;2023-07-29T06:43:34;6.50;;;4.57;;
10851;SDS011;5479;52.046;6.314;2023-07-29T06:46:02;7.85;;;5.30;;
10851;SDS011;5479;52.046;6.314;2023-07-29T06:48:40;8.55;;;4.85;;
10851;SDS011;5479;52.046;6.314;2023-07-29T06:51:12;7.22;;;4.97;;
10851;SDS011;5479;52.046;6.314;2023-07-29T06:53:44;6.78;;;5.05;;
10851;SDS011;5479;52.046;6.314;2023-07-29T06:56:12;7.60;;;4.88;;
10851;SDS011;5479;52.046;6.314;2023-07-29T06:58:40;7.13;;;4.55;;
10851;SDS011;5479;52.046;6.314;2023-07-29T07:01:10;6.63;;;4.35;;
10851;SDS011;5479;52.046;6.314;2023-07-29T07:03:38;7.82;;;4.95;;
10851;SDS011;5479;52.046;6.314;2023-07-29T07:06:06;6.93;;;4.85;;
10851;SDS011;5479;52.046;6.314;2023-07-29T07:08:47;6.70;;;5.13;;
10851;SDS011;5479;52.046;6.314;2023-07-29T07:11:19;7.53;;;5.05;;
10851;SDS011;5479;52.046;6.314;2023-07-29T07:13:48;8.00;;;5.45;;
10851;SDS011;5479;52.046;6.314;2023-07-29T07:16:19;6.40;;;4.38;;
10851;SDS011;5479;52.046;6.314;2023-07-29T07:18:48;7.95;;;4.90;;
10851;SDS011;5479;52.046;6.314;2023-07-29T07:21:23;7.82;;;4.47;;
10851;SDS011;5479;52.046;6.314;2023-07-29T07:23:54;7.20;;;4.80;;
10851;SDS011;5479;52.046;6.314;2023-07-29T07:26:25;7.80;;;4.85;;
10851;SDS011;5479;52.046;6.314;2023-07-29T07:28:53;6.15;;;4.28;;
10851;SDS011;5479;52.046;6.314;2023-07-29T07:31:21;5.60;;;4.10;;
10851;SDS011;5479;52.046;6.314;2023-07-29T07:33:51;9.00;;;4.53;;
10851;SDS011;5479;52.046;6.314;2023-07-29T07:36:19;6.22;;;4.55;;
10851;SDS011;5479;52.046;6.314;2023-07-29T07:38:47;7.53;;;4.45;;
10851;SDS011;5479;52.046;6.314;2023-07-29T07:41:16;8.77;;;4.20;;
10851;SDS011;5479;52.046;6.314;2023-07-29T07:43:46;6.85;;;4.55;;
10851;SDS011;5479;52.046;6.314;2023-07-29T07:46:15;6.80;;;4.20;;
10851;SDS011;5479;52.046;6.314;2023-07-29T07:48:43;7.80;;;5.07;;
10851;SDS011;5479;52.046;6.314;2023-07-29T07:51:11;6.25;;;4.57;;
10851;SDS011;5479;52.046;6.314;2023-07-29T07:53:42;7.25;;;4.80;;
10851;SDS011;5479;52.046;6.314;2023-07-29T07:56:10;7.28;;;4.55;;
10851;SDS011;5479;52.046;6.314;2023-07-29T07:58:38;7.63;;;4.97;;
10851;SDS011;5479;52.046;6.314;2023-07-29T08:01:07;7.70;;;4.70;;
10851;SDS011;5479;52.046;6.314;2023-07-29T08:03:38;6.43;;;3.90;;
10851;SDS011;5479;52.046;6.314;2023-07-29T08:06:12;7.47;;;4.20;;
10851;SDS011;5479;52.046;6.314;2023-07-29T08:08:40;5.75;;;4.05;;
10851;SDS011;5479;52.046;6.314;2023-07-29T08:11:10;8.80;;;4.32;;
10851;SDS011;5479;52.046;6.314;2023-07-29T08:13:40;6.30;;;4.82;;
10851;SDS011;5479;52.046;6.314;2023-07-29T08:16:11;7.70;;;5.00;;
10851;SDS011;5479;52.046;6.314;2023-07-29T08:18:43;6.40;;;4.30;;
10851;SDS011;5479;52.046;6.314;2023-07-29T08:21:11;6.25;;;4.05;;
10851;SDS011;5479;52.046;6.314;2023-07-29T08:23:40;5.35;;;4.10;;
10851;SDS011;5479;52.046;6.314;2023-07-29T08:26:08;7.30;;;4.15;;
10851;SDS011;5479;52.046;6.314;2023-07-29T08:28:40;7.13;;;4.15;;
10851;SDS011;5479;52.046;6.314;2023-07-29T08:31:08;7.38;;;4.25;;
10851;SDS011;5479;52.046;6.314;2023-07-29T08:33:37;6.93;;;4.82;;
10851;SDS011;5479;52.046;6.314;2023-07-29T08:36:11;6.20;;;4.60;;
10851;SDS011;5479;52.046;6.314;2023-07-29T08:38:42;7.85;;;4.50;;
10851;SDS011;5479;52.046;6.314;2023-07-29T08:41:13;6.00;;;4.63;;
10851;SDS011;5479;52.046;6.314;2023-07-29T08:43:47;5.88;;;4.30;;
10851;SDS011;5479;52.046;6.314;2023-07-29T08:46:19;6.53;;;4.47;;
10851;SDS011;5479;52.046;6.314;2023-07-29T08:48:48;5.50;;;4.50;;
10851;SDS011;5479;52.046;6.314;2023-07-29T08:51:18;5.88;;;4.20;;
10851;SDS011;5479;52.046;6.314;2023-07-29T08:53:48;6.57;;;4.40;;
10851;SDS011;5479;52.046;6.314;2023-07-29T08:56:16;6.85;;;4.65;;
10851;SDS011;5479;52.046;6.314;2023-07-29T08:58:46;7.82;;;4.75;;
10851;SDS011;5479;52.046;6.314;2023-07-29T09:01:15;5.78;;;4.72;;
10851;SDS011;5479;52.046;6.314;2023-07-29T09:03:44;5.90;;;4.97;;
10851;SDS011;5479;52.046;6.314;2023-07-29T09:06:12;7.00;;;5.30;;
10851;SDS011;5479;52.046;6.314;2023-07-29T09:08:42;6.88;;;5.05;;
10851;SDS011;5479;52.046;6.314;2023-07-29T09:11:13;5.93;;;4.88;;
10851;SDS011;5479;52.046;6.314;2023-07-29T09:13:44;6.15;;;4.45;;
10851;SDS011;5479;52.046;6.314;2023-07-29T09:16:16;5.65;;;4.43;;
10851;SDS011;5479;52.046;6.314;2023-07-29T09:18:45;5.60;;;4.28;;
10851;SDS011;5479;52.046;6.314;2023-07-29T09:21:16;5.95;;;4.43;;
10851;SDS011;5479;52.046;6.314;2023-07-29T09:23:45;7.18;;;4.43;;
10851;SDS011;5479;52.046;6.314;2023-07-29T09:26:13;5.95;;;4.40;;
10851;SDS011;5479;52.046;6.314;2023-07-29T09:28:41;5.70;;;3.90;;
10851;SDS011;5479;52.046;6.314;2023-07-29T09:31:15;5.65;;;4.43;;
10851;SDS011;5479;52.046;6.314;2023-07-29T09:33:49;5.72;;;3.75;;
10851;SDS011;5479;52.046;6.314;2023-07-29T09:36:22;5.03;;;3.63;;
10851;SDS011;5479;52.046;6.314;2023-07-29T09:38:56;5.30;;;3.40;;
10851;SDS011;5479;52.046;6.314;2023-07-29T09:41:26;5.80;;;3.40;;
10851;SDS011;5479;52.046;6.314;2023-07-29T09:43:57;5.85;;;3.13;;
10851;SDS011;5479;52.046;6.314;2023-07-29T09:46:33;5.30;;;3.20;;
10851;SDS011;5479;52.046;6.314;2023-07-29T09:49:02;6.90;;;3.13;;
10851;SDS011;5479;52.046;6.314;2023-07-29T09:51:32;5.20;;;3.05;;
10851;SDS011;5479;52.046;6.314;2023-07-29T09:54:05;5.75;;;3.58;;
10851;SDS011;5479;52.046;6.314;2023-07-29T09:56:34;4.70;;;3.22;;
10851;SDS011;5479;52.046;6.314;2023-07-29T09:59:08;5.35;;;3.35;;
10851;SDS011;5479;52.046;6.314;2023-07-29T10:01:39;4.60;;;2.80;;
10851;SDS011;5479;52.046;6.314;2023-07-29T10:04:07;4.63;;;2.75;;
10851;SDS011;5479;52.046;6.314;2023-07-29T10:06:36;4.13;;;2.50;;
10851;SDS011;5479;52.046;6.314;2023-07-29T10:09:07;4.43;;;2.50;;
10851;SDS011;5479;52.046;6.314;2023-07-29T10:11:35;3.55;;;2.33;;
10851;SDS011;5479;52.046;6.314;2023-07-29T10:14:02;4.07;;;2.20;;
10851;SDS011;5479;52.046;6.314;2023-07-29T10:16:31;7.03;;;2.85;;
10851;SDS011;5479;52.046;6.314;2023-07-29T10:19:04;4.28;;;2.50;;
10851;SDS011;5479;52.046;6.314;2023-07-29T10:21:35;4.05;;;2.35;;
10851;SDS011;5479;52.046;6.314;2023-07-29T10:24:09;4.57;;;2.70;;
10851;SDS011;5479;52.046;6.314;2023-07-29T10:26:42;3.90;;;2.42;;
10851;SDS011;5479;52.046;6.314;2023-07-29T10:29:13;4.65;;;2.90;;
10851;SDS011;5479;52.046;6.314;2023-07-29T10:31:46;6.82;;;2.90;;
10851;SDS011;5479;52.046;6.314;2023-07-29T10:34:16;5.55;;;2.40;;
10851;SDS011;5479;52.046;6.314;2023-07-29T10:36:44;4.13;;;2.42;;
10851;SDS011;5479;52.046;6.314;2023-07-29T10:39:16;5.68;;;2.60;;
10851;SDS011;5479;52.046;6.314;2023-07-29T10:41:54;3.60;;;2.38;;
10851;SDS011;5479;52.046;6.314;2023-07-29T10:47:20;4.93;;;2.33;;
10851;SDS011;5479;52.046;6.314;2023-07-29T10:49:55;3.80;;;2.03;;
10851;SDS011;5479;52.046;6.314;2023-07-29T10:52:31;4.40;;;2.25;;
10851;SDS011;5479;52.046;6.314;2023-07-29T10:58:09;4.53;;;2.42;;
10851;SDS011;5479;52.046;6.314;2023-07-29T11:00:41;3.53;;;2.35;;
10851;SDS011;5479;52.046;6.314;2023-07-29T11:03:11;5.25;;;2.90;;
10851;SDS011;5479;52.046;6.314;2023-07-29T11:05:48;3.70;;;2.50;;
10851;SDS011;5479;52.046;6.314;2023-07-29T11:08:18;4.07;;;2.50;;
10851;SDS011;5479;52.046;6.314;2023-07-29T11:13:43;3.70;;;2.63;;
10851;SDS011;5479;52.046;6.314;2023-07-29T11:16:13;4.70;;;2.90;;
10851;SDS011;5479;52.046;6.314;2023-07-29T11:18:47;3.65;;;2.40;;
10851;SDS011;5479;52.046;6.314;2023-07-29T11:21:18;3.85;;;2.67;;
10851;SDS011;5479;52.046;6.314;2023-07-29T11:23:46;6.03;;;2.72;;
10851;SDS011;5479;52.046;6.314;2023-07-29T11:26:14;6.53;;;3.10;;
10851;SDS011;5479;52.046;6.314;2023-07-29T11:28:42;5.38;;;3.38;;
10851;SDS011;5479;52.046;6.314;2023-07-29T11:31:10;5.25;;;2.90;;
10851;SDS011;5479;52.046;6.314;2023-07-29T11:33:39;4.60;;;2.92;;
10851;SDS011;5479;52.046;6.314;2023-07-29T11:36:18;4.72;;;2.60;;
10851;SDS011;5479;52.046;6.314;2023-07-29T11:38:49;4.65;;;2.88;;
10851;SDS011;5479;52.046;6.314;2023-07-29T11:41:21;4.53;;;3.28;;
10851;SDS011;5479;52.046;6.314;2023-07-29T11:43:52;3.95;;;2.83;;
10851;SDS011;5479;52.046;6.314;2023-07-29T11:46:21;4.82;;;3.20;;
10851;SDS011;5479;52.046;6.314;2023-07-29T11:48:54;4.82;;;3.10;;
10851;SDS011;5479;52.046;6.314;2023-07-29T11:51:24;5.18;;;3.33;;
10851;SDS011;5479;52.046;6.314;2023-07-29T11:53:54;6.15;;;3.13;;
10851;SDS011;5479;52.046;6.314;2023-07-29T11:56:26;5.20;;;3.60;;
10851;SDS011;5479;52.046;6.314;2023-07-29T11:58:56;5.72;;;3.50;;
10851;SDS011;5479;52.046;6.314;2023-07-29T12:01:25;5.60;;;3.25;;
10851;SDS011;5479;52.046;6.314;2023-07-29T12:03:53;5.05;;;3.25;;
10851;SDS011;5479;52.046;6.314;2023-07-29T12:06:26;5.82;;;3.13;;
10851;SDS011;5479;52.046;6.314;2023-07-29T12:08:54;5.47;;;3.47;;
10851;SDS011;5479;52.046;6.314;2023-07-29T12:11:23;5.72;;;3.28;;
10851;SDS011;5479;52.046;6.314;2023-07-29T12:13:53;9.88;;;5.05;;
10851;SDS011;5479;52.046;6.314;2023-07-29T12:16:21;5.97;;;4.15;;
10851;SDS011;5479;52.046;6.314;2023-07-29T12:18:50;5.03;;;3.53;;
10851;SDS011;5479;52.046;6.314;2023-07-29T12:21:18;9.57;;;4.57;;
10851;SDS011;5479;52.046;6.314;2023-07-29T12:23:47;5.10;;;3.58;;
10851;SDS011;5479;52.046;6.314;2023-07-29T12:26:39;9.45;;;4.80;;
10851;SDS011;5479;52.046;6.314;2023-07-29T12:29:12;5.63;;;3.55;;
10851;SDS011;5479;52.046;6.314;2023-07-29T12:31:41;5.85;;;3.40;;
10851;SDS011;5479;52.046;6.314;2023-07-29T12:34:09;4.43;;;3.28;;
10851;SDS011;5479;52.046;6.314;2023-07-29T12:36:41;5.55;;;3.35;;
10851;SDS011;5479;52.046;6.314;2023-07-29T12:39:25;5.25;;;3.85;;
10851;SDS011;5479;52.046;6.314;2023-07-29T12:41:57;6.15;;;4.32;;
10851;SDS011;5479;52.046;6.314;2023-07-29T12:44:29;9.00;;;5.05;;
10851;SDS011;5479;52.046;6.314;2023-07-29T12:46:58;9.32;;;5.75;;
10851;SDS011;5479;52.046;6.314;2023-07-29T12:49:29;7.38;;;4.55;;
10851;SDS011;5479;52.046;6.314;2023-07-29T12:51:56;9.23;;;5.10;;
10851;SDS011;5479;52.046;6.314;2023-07-29T12:54:28;7.00;;;4.35;;
10851;SDS011;5479;52.046;6.314;2023-07-29T12:56:59;6.57;;;4.00;;
10851;SDS011;5479;52.046;6.314;2023-07-29T12:59:32;6.32;;;3.80;;
10851;SDS011;5479;52.046;6.314;2023-07-29T13:02:01;5.13;;;3.50;;
10851;SDS011;5479;52.046;6.314;2023-07-29T13:04:29;5.15;;;2.97;;
10851;SDS011;5479;52.046;6.314;2023-07-29T13:06:57;5.28;;;2.33;;
10851;SDS011;5479;52.046;6.314;2023-07-29T13:09:31;3.80;;;2.17;;
10851;SDS011;5479;52.046;6.314;2023-07-29T13:12:01;2.25;;;1.85;;
10851;SDS011;5479;52.046;6.314;2023-07-29T13:14:29;2.20;;;1.60;;
10851;SDS011;5479;52.046;6.314;2023-07-29T13:16:57;2.33;;;1.70;;
10851;SDS011;5479;52.046;6.314;2023-07-29T13:19:27;2.58;;;1.70;;
10851;SDS011;5479;52.046;6.314;2023-07-29T13:21:55;2.72;;;1.70;;
10851;SDS011;5479;52.046;6.314;2023-07-29T13:24:23;3.80;;;1.67;;
10851;SDS011;5479;52.046;6.314;2023-07-29T13:26:52;3.53;;;1.80;;
10851;SDS011;5479;52.046;6.314;2023-07-29T13:29:20;2.15;;;1.60;;
10851;SDS011;5479;52.046;6.314;2023-07-29T13:31:50;2.35;;;1.77;;
10851;SDS011;5479;52.046;6.314;2023-07-29T13:34:18;3.30;;;2.20;;
10851;SDS011;5479;52.046;6.314;2023-07-29T13:36:46;2.35;;;1.90;;
10851;SDS011;5479;52.046;6.314;2023-07-29T13:39:14;3.85;;;2.42;;
10851;SDS011;5479;52.046;6.314;2023-07-29T13:41:45;3.70;;;2.28;;
10851;SDS011;5479;52.046;6.314;2023-07-29T13:44:15;4.18;;;2.65;;
10851;SDS011;5479;52.046;6.314;2023-07-29T13:46:43;3.22;;;2.38;;
10851;SDS011;5479;52.046;6.314;2023-07-29T13:49:11;4.40;;;2.50;;
10851;SDS011;5479;52.046;6.314;2023-07-29T13:51:41;3.05;;;2.42;;
10851;SDS011;5479;52.046;6.314;2023-07-29T13:54:11;4.78;;;2.60;;
10851;SDS011;5479;52.046;6.314;2023-07-29T13:56:39;3.50;;;2.50;;
10851;SDS011;5479;52.046;6.314;2023-07-29T13:59:07;4.38;;;2.63;;
10851;SDS011;5479;52.046;6.314;2023-07-29T14:01:42;3.65;;;2.60;;
10851;SDS011;5479;52.046;6.314;2023-07-29T14:04:13;4.35;;;2.40;;
10851;SDS011;5479;52.046;6.314;2023-07-29T14:06:40;3.60;;;2.40;;
10851;SDS011;5479;52.046;6.314;2023-07-29T14:09:17;3.22;;;2.22;;
10851;SDS011;5479;52.046;6.314;2023-07-29T14:12:05;4.38;;;2.70;;
10851;SDS011;5479;52.046;6.314;2023-07-29T14:14:33;3.67;;;2.50;;
10851;SDS011;5479;52.046;6.314;2023-07-29T14:17:03;2.88;;;2.30;;
10851;SDS011;5479;52.046;6.314;2023-07-29T14:19:32;6.05;;;2.33;;
10851;SDS011;5479;52.046;6.314;2023-07-29T14:22:00;4.68;;;2.42;;
10851;SDS011;5479;52.046;6.314;2023-07-29T14:24:28;4.93;;;2.38;;
10851;SDS011;5479;52.046;6.314;2023-07-29T14:27:01;2.67;;;1.90;;
10851;SDS011;5479;52.046;6.314;2023-07-29T14:29:29;2.47;;;1.90;;
10851;SDS011;5479;52.046;6.314;2023-07-29T14:32:00;2.50;;;1.80;;
10851;SDS011;5479;52.046;6.314;2023-07-29T14:34:52;2.35;;;1.70;;
10851;SDS011;5479;52.046;6.314;2023-07-29T14:37:19;2.50;;;1.70;;
10851;SDS011;5479;52.046;6.314;2023-07-29T14:39:46;2.30;;;1.85;;
10851;SDS011;5479;52.046;6.314;2023-07-29T14:42:15;3.13;;;1.90;;
10851;SDS011;5479;52.046;6.314;2023-07-29T14:44:44;2.72;;;1.70;;
10851;SDS011;5479;52.046;6.314;2023-07-29T14:47:12;3.28;;;2.15;;
10851;SDS011;5479;52.046;6.314;2023-07-29T14:49:45;2.58;;;1.88;;
10851;SDS011;5479;52.046;6.314;2023-07-29T14:52:19;3.83;;;1.98;;
10851;SDS011;5479;52.046;6.314;2023-07-29T14:54:51;2.55;;;1.77;;
10851;SDS011;5479;52.046;6.314;2023-07-29T14:57:19;3.70;;;2.20;;
10851;SDS011;5479;52.046;6.314;2023-07-29T14:59:48;3.50;;;1.98;;
10851;SDS011;5479;52.046;6.314;2023-07-29T15:02:16;4.60;;;2.10;;
10851;SDS011;5479;52.046;6.314;2023-07-29T15:04:44;4.57;;;2.30;;
10851;SDS011;5479;52.046;6.314;2023-07-29T15:07:12;3.60;;;2.17;;
10851;SDS011;5479;52.046;6.314;2023-07-29T15:09:43;2.88;;;2.03;;
10851;SDS011;5479;52.046;6.314;2023-07-29T15:12:12;3.47;;;2.10;;
10851;SDS011;5479;52.046;6.314;2023-07-29T15:14:40;3.75;;;2.10;;
10851;SDS011;5479;52.046;6.314;2023-07-29T15:17:08;3.85;;;2.00;;
10851;SDS011;5479;52.046;6.314;2023-07-29T15:19:35;4.60;;;2.08;;